Time;durP1;ratioP1;P1;durP2;ratioP2;P2;SDS_P1;SDS_P2;PMS_P1;PMS_P2;Temp;Humidity;BMP_temperature;BMP_pressure;BME280_temperature;BME280_humidity;BME280_pressure;Samples;Min_cycle;Max_cycle;Signal;HPM_P1;HPM_P2
2023/04/28 00:00:03;;;;;;;7.67;4.77;;;;;;;;;;5048059;28;20174;-85
2023/04/28 00:02:29;;;;;;;10.10;5.60;;;11.90;99.90;;;;;;5047284;28;20486;-85
2023/04/28 00:04:54;;;;;;;8.73;5.80;;;11.50;99.90;;;;;;5030321;28;20189;-87
2023/04/28 00:07:20;;;;;;;9.70;6.10;;;11.50;99.90;;;;;;5047981;28;20720;-86
2023/04/28 00:09:45;;;;;;;7.13;6.03;;;11.30;99.90;;;;;;5050651;28;20181;-85
2023/04/28 00:12:11;;;;;;;9.57;5.17;;;11.30;99.90;;;;;;5030541;28;20200;-85
2023/04/28 00:14:36;;;;;;;9.73;5.40;;;11.40;99.90;;;;;;5047482;28;20265;-85
2023/04/28 00:17:02;;;;;;;13.77;6.10;;;11.50;99.90;;;;;;5046897;28;20362;-86
2023/04/28 00:19:28;;;;;;;13.80;5.20;;;11.50;99.90;;;;;;5049172;28;20182;-86
2023/04/28 00:21:53;;;;;;;10.77;6.07;;;11.60;99.90;;;;;;5031772;28;20174;-85
2023/04/28 00:24:19;;;;;;;7.77;5.23;;;;;;;;;;5048830;28;20236;-85
2023/04/28 00:26:45;;;;;;;5.53;5.00;;;11.80;99.90;;;;;;5034856;28;20304;-85
2023/04/28 00:29:10;;;;;;;8.30;5.40;;;11.80;99.90;;;;;;5045858;28;20436;-86
2023/04/28 00:31:36;;;;;;;8.63;5.43;;;;;;;;;;5048847;28;21780;-84
2023/04/28 00:34:02;;;;;;;7.30;5.30;;;11.60;99.90;;;;;;5028509;28;20199;-85
2023/04/28 00:36:30;;;;;;;9.33;5.67;;;11.30;99.90;;;;;;5049618;28;20509;-86
2023/04/28 00:38:56;;;;;;;8.50;5.15;;;11.30;99.90;;;;;;5030416;28;20181;-86
2023/04/28 00:41:22;;;;;;;14.03;6.20;;;11.30;99.90;;;;;;5031917;28;20188;-86
2023/04/28 00:43:49;;;;;;;7.17;5.70;;;11.30;99.90;;;;;;5046808;28;20520;-85
2023/04/28 00:46:25;;;;;;;8.30;6.30;;;11.20;99.90;;;;;;5034869;28;20277;-85
2023/04/28 00:48:51;;;;;;;8.90;5.78;;;11.20;99.90;;;;;;5039723;28;20187;-86
2023/04/28 00:51:17;;;;;;;8.07;5.80;;;11.10;99.90;;;;;;5040268;28;20177;-86
2023/04/28 00:53:43;;;;;;;11.00;6.90;;;;;;;;;;5052218;28;20253;-86
2023/04/28 00:56:09;;;;;;;9.63;7.13;;;10.80;99.90;;;;;;5033069;28;20285;-86
2023/04/28 00:58:35;;;;;;;10.20;5.80;;;10.60;99.90;;;;;;5036349;28;20205;-85
2023/04/28 01:01:05;;;;;;;10.23;6.83;;;10.60;99.90;;;;;;5031130;28;20271;-87
2023/04/28 01:03:33;;;;;;;10.35;6.80;;;10.60;99.90;;;;;;5032378;28;20256;-86
2023/04/28 01:05:59;;;;;;;11.68;6.63;;;10.60;99.90;;;;;;5037977;28;20293;-87
2023/04/28 01:08:32;;;;;;;15.35;7.20;;;10.50;99.90;;;;;;5033501;28;20185;-87
2023/04/28 01:10:58;;;;;;;11.05;7.53;;;10.50;99.90;;;;;;5038267;28;20195;-87
2023/04/28 01:13:23;;;;;;;8.43;5.75;;;10.50;99.90;;;;;;5048844;28;20188;-86
2023/04/28 01:15:50;;;;;;;9.27;7.17;;;10.70;99.90;;;;;;5028945;28;20920;-86
2023/04/28 01:18:15;;;;;;;12.60;7.70;;;11.00;99.90;;;;;;5033812;28;20552;-87
2023/04/28 01:20:44;;;;;;;14.27;7.07;;;;;;;;;;5050723;28;20192;-87
2023/04/28 01:23:14;;;;;;;8.05;6.15;;;10.80;99.90;;;;;;5047351;28;20429;-86
2023/04/28 01:25:43;;;;;;;12.77;8.00;;;10.70;99.90;;;;;;5049536;28;20228;-86
2023/04/28 01:28:10;;;;;;;11.02;7.00;;;10.70;99.90;;;;;;5033669;28;20280;-86
2023/04/28 01:30:36;;;;;;;15.00;7.90;;;;;;;;;;5047927;28;20192;-87
2023/04/28 01:33:02;;;;;;;7.53;6.00;;;10.60;99.90;;;;;;5049060;28;20282;-87
2023/04/28 01:35:28;;;;;;;7.70;6.00;;;;;;;;;;5027883;28;20236;-86
2023/04/28 01:37:55;;;;;;;11.43;7.82;;;;;;;;;;5043155;28;20194;-87
2023/04/28 01:40:20;;;;;;;12.40;7.55;;;;;;;;;;5033621;28;20708;-89
2023/04/28 01:42:46;;;;;;;11.67;8.50;;;;;;;;;;5050605;28;20185;-88
2023/04/28 01:45:12;;;;;;;14.47;8.60;;;;;;;;;;5033506;28;20455;-87
2023/04/28 01:47:38;;;;;;;11.47;8.00;;;;;;;;;;5029457;28;20467;-88
2023/04/28 01:50:05;;;;;;;15.10;9.00;;;10.20;99.90;;;;;;5029036;28;20432;-88
2023/04/28 01:52:31;;;;;;;10.10;7.07;;;;;;;;;;5030661;28;20535;-89
2023/04/28 01:54:56;;;;;;;9.50;5.73;;;10.30;99.90;;;;;;5046177;28;20205;-88
2023/04/28 01:57:22;;;;;;;9.57;6.60;;;10.10;99.90;;;;;;5030655;28;20493;-88
2023/04/28 01:59:48;;;;;;;7.93;5.47;;;;;;;;;;5036712;28;20174;-88
2023/04/28 02:02:14;;;;;;;9.88;6.03;;;;;;;;;;5044568;28;20181;-88
2023/04/28 02:04:43;;;;;;;6.10;4.97;;;;;;;;;;5043445;28;20181;-87
2023/04/28 02:07:09;;;;;;;6.47;4.45;;;;;;;;;;5029511;28;20205;-87
2023/04/28 02:09:35;;;;;;;8.90;5.97;;;10.40;99.90;;;;;;5047793;28;20221;-87
2023/04/28 02:12:01;;;;;;;10.52;5.97;;;;;;;;;;5034342;28;20268;-87
2023/04/28 02:14:27;;;;;;;9.75;5.25;;;;;;;;;;5028088;28;20686;-87
2023/04/28 02:16:53;;;;;;;7.45;4.85;;;;;;;;;;5044755;28;20206;-87
2023/04/28 02:19:19;;;;;;;10.30;5.00;;;10.50;99.90;;;;;;5046233;28;20268;-86
2023/04/28 02:21:44;;;;;;;9.17;4.70;;;10.50;99.90;;;;;;5047156;28;20463;-87
2023/04/28 02:24:10;;;;;;;5.57;4.50;;;;;;;;;;5030884;28;20181;-87
2023/04/28 02:26:36;;;;;;;19.03;5.40;;;;;;;;;;5044487;28;20682;-87
2023/04/28 02:29:05;;;;;;;6.93;5.77;;;;;;;;;;5034934;28;20416;-87
2023/04/28 02:31:31;;;;;;;7.57;6.18;;;;;;;;;;5045030;28;20435;-87
2023/04/28 02:33:57;;;;;;;10.73;5.35;;;;;;;;;;5046608;28;20728;-87
2023/04/28 02:36:23;;;;;;;7.70;5.47;;;;;;;;;;5032531;28;20201;-87
2023/04/28 02:38:49;;;;;;;8.57;6.17;;;;;;;;;;5029607;28;20510;-87
2023/04/28 02:41:15;;;;;;;12.00;6.37;;;;;;;;;;5046039;28;20435;-87
2023/04/28 02:43:41;;;;;;;9.13;5.50;;;;;;;;;;5041401;28;20435;-88
2023/04/28 02:46:07;;;;;;;10.15;5.68;;;;;;;;;;5038503;28;20221;-88
2023/04/28 02:48:34;;;;;;;12.70;5.40;;;;;;;;;;5039099;28;20201;-89
2023/04/28 02:51:01;;;;;;;9.82;5.53;;;10.50;99.90;;;;;;5029022;28;20793;-87
2023/04/28 02:53:27;;;;;;;10.10;5.15;;;;;;;;;;5033973;28;20666;-87
2023/04/28 02:55:53;;;;;;;6.28;5.35;;;;;;;;;;5026869;28;20197;-87
2023/04/28 02:58:19;;;;;;;10.10;5.75;;;;;;;;;;5025519;28;20203;-88
2023/04/28 03:00:46;;;;;;;12.68;4.53;;;10.50;99.90;;;;;;5027078;28;20201;-87
2023/04/28 03:03:12;;;;;;;7.55;5.05;;;;;;;;;;5041956;28;20177;-88
2023/04/28 03:05:38;;;;;;;10.80;4.93;;;;;;;;;;5026201;28;20220;-87
2023/04/28 03:08:04;;;;;;;7.43;4.05;;;10.30;99.90;;;;;;5034708;28;20436;-88
2023/04/28 03:10:30;;;;;;;7.37;5.00;;;10.30;99.90;;;;;;5032575;28;20226;-87
2023/04/28 03:12:56;;;;;;;8.13;5.10;;;;;;;;;;5030210;28;20437;-87
2023/04/28 03:15:22;;;;;;;5.90;3.17;;;;;;;;;;5032844;28;20208;-88
2023/04/28 03:17:47;;;;;;;5.63;5.10;;;10.40;99.90;;;;;;5044425;28;20452;-87
2023/04/28 03:20:13;;;;;;;8.07;4.23;;;10.40;99.90;;;;;;5042705;28;20556;-88
2023/04/28 03:22:39;;;;;;;8.63;5.33;;;;;;;;;;5045449;28;20181;-88
2023/04/28 03:25:04;;;;;;;5.88;4.28;;;10.50;99.90;;;;;;5045434;28;20200;-88
2023/04/28 03:27:30;;;;;;;8.13;5.00;;;;;;;;;;5027894;28;20740;-87
2023/04/28 03:29:56;;;;;;;8.37;5.13;;;10.60;99.90;;;;;;5024178;28;20186;-88
2023/04/28 03:32:22;;;;;;;5.90;4.43;;;10.60;99.90;;;;;;5042673;28;20440;-89
2023/04/28 03:34:48;;;;;;;10.37;4.77;;;;;;;;;;5044402;28;20258;-88
2023/04/28 03:37:13;;;;;;;5.90;4.80;;;10.80;99.90;;;;;;5045636;28;20262;-88
2023/04/28 03:39:39;;;;;;;5.60;3.70;;;10.80;99.90;;;;;;5031834;28;20427;-88
2023/04/28 03:42:04;;;;;;;4.80;3.40;;;10.90;99.90;;;;;;5028550;28;20189;-88
2023/04/28 03:44:30;;;;;;;10.10;3.83;;;;;;;;;;5029909;28;20184;-88
2023/04/28 03:46:56;;;;;;;6.00;3.90;;;;;;;;;;5034059;28;20488;-88
2023/04/28 03:49:22;;;;;;;6.50;4.37;;;;;;;;;;5037416;28;20439;-89
2023/04/28 03:51:50;;;;;;;7.53;3.80;;;;;;;;;;5030121;28;20493;-88
2023/04/28 03:54:15;;;;;;;9.00;4.57;;;11.40;99.90;;;;;;5034252;28;20185;-88
2023/04/28 03:56:41;;;;;;;5.73;4.57;;;11.40;99.90;;;;;;5044376;28;20205;-88
2023/04/28 03:59:10;;;;;;;4.80;3.90;;;;;;;;;;5033839;28;20265;-89
2023/04/28 04:01:36;;;;;;;8.45;4.85;;;11.50;99.90;;;;;;5036620;28;20185;-87
2023/04/28 04:04:01;;;;;;;9.90;5.83;;;11.50;99.90;;;;;;5047148;28;20246;-86
2023/04/28 04:06:27;;;;;;;7.23;5.60;;;11.50;99.90;;;;;;5034496;28;20177;-86
2023/04/28 04:08:52;;;;;;;10.13;6.87;;;11.50;99.90;;;;;;5036904;28;20170;-85
2023/04/28 04:11:18;;;;;;;15.80;6.93;;;11.40;99.90;;;;;;5051752;28;20177;-85
2023/04/28 04:13:43;;;;;;;10.30;7.20;;;11.30;99.90;;;;;;5041462;28;20229;-85
2023/04/28 04:16:09;;;;;;;9.87;7.53;;;11.20;99.90;;;;;;5056000;28;20209;-86
2023/04/28 04:18:34;;;;;;;9.30;6.80;;;11.00;99.90;;;;;;5045537;28;20264;-86
2023/04/28 04:21:00;;;;;;;11.03;7.30;;;11.10;99.90;;;;;;5048214;28;20193;-86
2023/04/28 04:23:26;;;;;;;11.80;7.80;;;11.00;99.90;;;;;;5041060;28;20189;-86
2023/04/28 04:25:52;;;;;;;12.00;7.50;;;;;;;;;;5060367;28;20474;-85
2023/04/28 04:28:17;;;;;;;13.10;8.00;;;10.80;99.90;;;;;;5046404;28;20188;-83
2023/04/28 04:30:43;;;;;;;10.40;7.30;;;10.70;99.90;;;;;;5043114;28;20440;-82
2023/04/28 04:33:09;;;;;;;8.23;7.03;;;10.80;99.90;;;;;;5074729;28;20571;-84
2023/04/28 04:35:35;;;;;;;9.50;7.40;;;10.70;99.90;;;;;;5062036;28;20208;-83
2023/04/28 04:38:01;;;;;;;15.30;8.80;;;10.90;99.90;;;;;;5057630;28;20266;-82
2023/04/28 04:40:28;;;;;;;13.50;8.00;;;11.10;99.90;;;;;;5063663;28;20193;-83
2023/04/28 04:42:53;;;;;;;13.17;8.27;;;11.40;99.90;;;;;;5061788;28;20191;-83
2023/04/28 04:45:19;;;;;;;13.57;8.20;;;11.40;99.90;;;;;;5059671;28;20205;-82
2023/04/28 04:47:44;;;;;;;11.00;8.20;;;11.40;99.90;;;;;;5056551;28;20177;-82
2023/04/28 04:50:10;;;;;;;15.83;10.37;;;11.30;99.90;;;;;;5031024;28;20193;-82
2023/04/28 04:52:36;;;;;;;21.35;13.65;;;11.30;99.90;;;;;;5021107;28;20173;-83
2023/04/28 04:55:02;;;;;;;15.23;11.00;;;11.30;99.90;;;;;;5055150;28;20185;-82
2023/04/28 04:57:27;;;;;;;10.33;7.97;;;11.20;99.90;;;;;;5057607;28;20227;-83
2023/04/28 04:59:53;;;;;;;14.37;9.50;;;;;;;;;;5065349;28;20169;-83
2023/04/28 05:02:19;;;;;;;11.10;8.00;;;11.30;99.90;;;;;;5061249;28;20175;-83
2023/04/28 05:04:45;;;;;;;11.90;8.20;;;;;;;;;;5040102;28;20392;-82
2023/04/28 05:07:11;;;;;;;11.30;9.27;;;11.50;99.90;;;;;;5039283;28;20190;-81
2023/04/28 05:09:37;;;;;;;13.82;9.13;;;11.50;99.90;;;;;;5039060;28;20480;-84
2023/04/28 05:12:02;;;;;;;15.57;8.97;;;11.50;99.90;;;;;;5038776;28;20266;-84
2023/04/28 05:14:28;;;;;;;9.67;7.50;;;;;;;;;;5039589;28;20178;-83
2023/04/28 05:16:54;;;;;;;9.83;6.87;;;;;;;;;;5020976;28;20636;-83
2023/04/28 05:19:20;;;;;;;13.40;9.10;;;11.40;99.90;;;;;;5039358;28;20408;-83
2023/04/28 05:21:46;;;;;;;19.47;12.00;;;11.50;99.90;;;;;;5039560;28;20409;-83
2023/04/28 05:24:13;;;;;;;11.40;8.48;;;11.70;99.90;;;;;;5039429;28;20256;-83
2023/04/28 05:26:39;;;;;;;11.13;6.13;;;;;;;;;;5038162;28;20542;-83
2023/04/28 05:29:05;;;;;;;5.93;5.32;;;11.50;99.90;;;;;;5021587;28;20654;-83
2023/04/28 05:31:31;;;;;;;11.33;5.40;;;11.40;99.90;;;;;;5038575;28;20162;-83
2023/04/28 05:33:57;;;;;;;6.07;5.00;;;11.40;99.90;;;;;;5037884;28;20408;-84
2023/04/28 05:36:23;;;;;;;8.10;5.65;;;11.40;99.90;;;;;;5039554;28;20190;-83
2023/04/28 05:38:49;;;;;;;15.33;8.50;;;;;;;;;;5038935;28;20209;-83
2023/04/28 05:41:14;;;;;;;6.30;5.30;;;11.60;99.90;;;;;;5035383;28;20185;-83
2023/04/28 05:43:40;;;;;;;10.20;6.53;;;11.60;99.90;;;;;;5036431;28;20400;-83
2023/04/28 05:46:06;;;;;;;9.60;6.07;;;;;;;;;;5036924;28;20267;-82
2023/04/28 05:48:31;;;;;;;8.60;6.00;;;11.60;99.90;;;;;;5034106;28;20649;-83
2023/04/28 05:50:57;;;;;;;13.50;7.37;;;11.50;99.90;;;;;;5036057;28;20488;-83
2023/04/28 05:53:23;;;;;;;9.40;7.57;;;11.40;99.90;;;;;;5035730;28;20696;-83
2023/04/28 05:55:49;;;;;;;9.17;6.33;;;;;;;;;;5035916;28;20204;-82
2023/04/28 05:58:17;;;;;;;15.13;9.30;;;11.50;99.90;;;;;;5035504;28;20216;-83
2023/04/28 06:00:42;;;;;;;21.58;12.45;;;11.60;99.90;;;;;;5034532;28;20184;-83
2023/04/28 06:03:09;;;;;;;19.80;11.60;;;11.50;99.90;;;;;;5036270;28;20558;-83
2023/04/28 06:05:35;;;;;;;13.68;8.40;;;11.40;99.90;;;;;;5034999;28;20200;-83
2023/04/28 06:08:02;;;;;;;8.70;6.90;;;11.50;99.90;;;;;;5034532;28;20249;-83
2023/04/28 06:10:28;;;;;;;12.73;8.13;;;11.60;99.90;;;;;;5035207;28;20916;-83
2023/04/28 06:12:53;;;;;;;10.97;7.13;;;11.40;99.90;;;;;;5035753;28;20604;-82
2023/04/28 06:15:19;;;;;;;9.00;6.30;;;11.40;99.90;;;;;;5035314;28;20221;-83
2023/04/28 06:17:45;;;;;;;7.40;6.60;;;11.40;99.90;;;;;;5034604;28;20205;-83
2023/04/28 06:20:12;;;;;;;11.53;8.27;;;;;;;;;;5034459;28;20166;-83
2023/04/28 06:22:38;;;;;;;12.13;7.68;;;11.70;99.90;;;;;;5039019;28;20146;-83
2023/04/28 06:25:04;;;;;;;8.80;6.88;;;12.00;99.90;;;;;;5038062;28;20180;-82
2023/04/28 06:27:31;;;;;;;7.60;5.90;;;12.00;99.90;;;;;;5036560;28;20284;-83
2023/04/28 06:29:57;;;;;;;10.55;6.70;;;12.10;99.90;;;;;;5038254;28;20416;-82
2023/04/28 06:32:23;;;;;;;9.35;6.75;;;12.10;99.90;;;;;;5036360;28;20204;-83
2023/04/28 06:34:48;;;;;;;9.73;5.67;;;12.20;99.90;;;;;;5038814;28;20182;-83
2023/04/28 06:37:14;;;;;;;10.43;6.67;;;12.20;99.90;;;;;;5037401;28;20225;-82
2023/04/28 06:39:40;;;;;;;9.33;7.07;;;12.10;99.90;;;;;;5037714;28;20185;-83
2023/04/28 06:42:06;;;;;;;21.13;7.23;;;12.20;99.90;;;;;;5036277;28;20181;-83
2023/04/28 06:44:31;;;;;;;15.57;8.13;;;11.90;99.90;;;;;;5038112;28;20150;-84
2023/04/28 06:46:57;;;;;;;9.40;6.93;;;;;;;;;;5037700;28;20784;-83
2023/04/28 06:49:23;;;;;;;11.87;8.20;;;;;;;;;;5035903;28;20228;-83
2023/04/28 06:51:49;;;;;;;11.83;8.23;;;;;;;;;;5037195;28;20889;-83
2023/04/28 06:54:15;;;;;;;17.37;9.17;;;11.90;99.90;;;;;;5036384;28;20416;-83
2023/04/28 06:56:41;;;;;;;13.80;9.48;;;11.90;99.90;;;;;;5035874;28;20448;-82
2023/04/28 06:59:07;;;;;;;13.97;9.67;;;11.60;99.90;;;;;;5035622;28;20196;-82
2023/04/28 07:01:33;;;;;;;18.70;10.50;;;;;;;;;;5037277;28;20174;-83
2023/04/28 07:03:59;;;;;;;18.98;10.77;;;;;;;;;;5037164;28;20412;-82
2023/04/28 07:06:26;;;;;;;19.93;11.77;;;;;;;;;;5036700;28;20259;-83
2023/04/28 07:08:52;;;;;;;16.45;11.38;;;11.20;99.90;;;;;;5034683;28;20425;-83
2023/04/28 07:11:18;;;;;;;20.03;12.07;;;;;;;;;;5035663;28;20570;-84
2023/04/28 07:13:48;;;;;;;17.33;11.90;;;11.10;99.90;;;;;;5032661;28;20425;-83
2023/04/28 07:16:13;;;;;;;17.70;11.80;;;11.00;99.90;;;;;;5034421;28;20622;-82
2023/04/28 07:18:39;;;;;;;16.80;11.70;;;;;;;;;;5034363;28;20200;-82
2023/04/28 07:21:06;;;;;;;15.93;11.70;;;;;;;;;;5032863;28;20238;-83
2023/04/28 07:23:32;;;;;;;18.77;11.75;;;;;;;;;;5034288;28;20174;-83
2023/04/28 07:25:57;;;;;;;18.30;11.48;;;11.00;99.90;;;;;;5032974;28;20252;-82
2023/04/28 07:28:23;;;;;;;20.80;12.10;;;;;;;;;;5034270;28;20621;-83
2023/04/28 07:30:49;;;;;;;19.03;12.27;;;;;;;;;;5031853;28;20253;-85
2023/04/28 07:33:15;;;;;;;18.30;11.50;;;11.10;99.90;;;;;;5034465;28;20428;-83
2023/04/28 07:35:41;;;;;;;21.67;11.60;;;;;;;;;;5032247;28;20448;-83
2023/04/28 07:38:06;;;;;;;18.33;12.07;;;11.20;99.90;;;;;;5031952;28;20678;-85
2023/04/28 07:40:32;;;;;;;20.47;12.83;;;11.30;99.90;;;;;;5033036;28;20197;-83
2023/04/28 07:42:58;;;;;;;21.37;12.77;;;11.20;99.90;;;;;;5033250;28;20174;-83
2023/04/28 07:45:23;;;;;;;18.33;12.37;;;;;;;;;;5034182;28;20186;-83
2023/04/28 07:47:50;;;;;;;24.47;12.70;;;;;;;;;;5034444;28;20256;-82
2023/04/28 07:50:16;;;;;;;21.15;13.25;;;;;;;;;;5032880;28;20420;-83
2023/04/28 07:52:43;;;;;;;22.77;10.95;;;;;;;;;;5032413;28;20207;-83
2023/04/28 07:55:09;;;;;;;18.58;11.05;;;11.70;99.90;;;;;;5033748;28;20269;-83
2023/04/28 07:57:34;;;;;;;16.07;12.07;;;11.70;99.90;;;;;;5035299;28;20232;-83
2023/04/28 08:00:00;;;;;;;15.80;11.47;;;11.70;99.90;;;;;;5037843;28;20223;-83
2023/04/28 08:02:26;;;;;;;14.83;10.77;;;11.60;99.90;;;;;;5037368;28;20181;-83
2023/04/28 08:04:51;;;;;;;15.63;11.60;;;11.90;99.90;;;;;;5036218;28;20180;-83
2023/04/28 08:07:17;;;;;;;14.70;11.60;;;11.80;99.90;;;;;;5045323;28;20187;-84
2023/04/28 08:09:46;;;;;;;14.40;10.83;;;12.00;99.90;;;;;;5056636;28;20220;-84
2023/04/28 08:12:12;;;;;;;19.50;14.30;;;;;;;;;;5057009;28;20184;-85
2023/04/28 08:14:37;;;;;;;17.42;12.80;;;12.00;99.90;;;;;;5057545;28;20284;-85
2023/04/28 08:17:03;;;;;;;16.60;12.27;;;12.50;99.90;;;;;;5058211;28;20224;-84
2023/04/28 08:19:28;;;;;;;16.00;11.30;;;12.60;99.90;;;;;;5038568;28;20189;-85
2023/04/28 08:21:54;;;;;;;11.53;8.90;;;12.60;99.90;;;;;;5039576;28;20227;-85
2023/04/28 08:24:20;;;;;;;13.47;11.00;;;;;;;;;;5039947;28;20272;-85
2023/04/28 08:26:46;;;;;;;17.50;11.17;;;;;;;;;;5039289;28;20242;-83
2023/04/28 08:29:11;;;;;;;14.00;10.67;;;12.60;99.90;;;;;;5040905;28;20458;-83
2023/04/28 08:31:37;;;;;;;14.27;11.30;;;;;;;;;;5060349;28;20414;-84
2023/04/28 08:34:03;;;;;;;14.18;10.65;;;12.40;99.90;;;;;;5060596;28;20174;-83
2023/04/28 08:36:32;;;;;;;16.43;11.70;;;;;;;;;;5060113;28;20638;-82
2023/04/28 08:38:59;;;;;;;16.27;10.45;;;12.40;99.90;;;;;;5039115;28;20235;-83
2023/04/28 08:41:26;;;;;;;14.87;11.10;;;12.50;99.90;;;;;;5056393;28;20173;-82
2023/04/28 08:43:53;;;;;;;18.88;11.40;;;12.40;99.90;;;;;;5056256;28;20399;-83
2023/04/28 08:46:21;;;;;;;17.23;11.90;;;12.20;99.90;;;;;;5055511;28;20197;-83
2023/04/28 08:48:48;;;;;;;17.55;12.40;;;12.00;99.90;;;;;;5038337;28;20272;-83
2023/04/28 08:51:19;;;;;;;24.70;14.80;;;11.80;99.90;;;;;;5056368;28;20162;-83
2023/04/28 08:53:52;;;;;;;21.35;13.05;;;12.00;99.90;;;;;;5055985;28;20172;-82
2023/04/28 08:56:23;;;;;;;18.35;12.30;;;12.00;99.90;;;;;;5056815;28;20212;-82
2023/04/28 08:58:50;;;;;;;19.58;14.07;;;;;;;;;;5056083;28;20189;-82
2023/04/28 09:01:16;;;;;;;18.10;13.65;;;;;;;;;;5037983;28;20250;-82
2023/04/28 09:03:42;;;;;;;24.57;17.90;;;;;;;;;;5055590;28;20177;-82
2023/04/28 09:06:08;;;;;;;13.00;10.02;;;;;;;;;;5037431;28;20440;-83
2023/04/28 09:08:34;;;;;;;17.83;11.02;;;;;;;;;;5054502;28;20207;-83
2023/04/28 09:11:07;;;;;;;15.88;10.27;;;12.80;99.90;;;;;;5055936;28;20250;-83
2023/04/28 09:13:33;;;;;;;16.95;12.68;;;;;;;;;;5037815;28;20551;-83
2023/04/28 09:16:01;;;;;;;10.83;9.10;;;13.00;99.90;;;;;;5055940;28;20189;-83
2023/04/28 09:18:27;;;;;;;7.68;5.93;;;;;;;;;;5056328;28;20447;-83
2023/04/28 09:21:08;;;;;;;4.75;3.88;;;13.30;99.90;;;;;;5055539;28;20169;-83
2023/04/28 09:23:45;;;;;;;5.68;4.10;;;13.30;99.90;;;;;;5055931;28;20157;-83
2023/04/28 09:26:11;;;;;;;4.27;2.00;;;;;;;;;;5055326;28;20204;-82
2023/04/28 09:28:37;;;;;;;3.07;2.50;;;;;;;;;;5055746;28;20927;-81
2023/04/28 09:31:03;;;;;;;2.70;1.83;;;13.70;99.90;;;;;;5054385;28;20439;-82
2023/04/28 09:33:29;;;;;;;2.87;2.40;;;;;;;;;;5056049;28;20419;-84
2023/04/28 09:35:55;;;;;;;3.47;2.67;;;;;;;;;;5037036;28;20432;-83
2023/04/28 09:38:22;;;;;;;2.83;2.60;;;13.80;99.90;;;;;;5055116;28;20508;-83
2023/04/28 09:40:51;;;;;;;3.07;2.23;;;14.60;99.90;;;;;;5055174;28;20779;-83
2023/04/28 09:43:33;;;;;;;2.40;1.90;;;15.00;99.90;;;;;;5055129;28;20466;-83
2023/04/28 09:46:01;;;;;;;3.20;1.70;;;15.50;99.90;;;;;;5036391;28;20447;-83
2023/04/28 09:48:35;;;;;;;2.77;2.00;;;16.00;99.90;;;;;;5055466;28;20426;-83
2023/04/28 09:51:05;;;;;;;3.97;2.40;;;16.80;99.90;;;;;;5055743;28;20407;-83
2023/04/28 09:53:31;;;;;;;1.83;1.73;;;;;;;;;;5054361;28;20445;-83
2023/04/28 09:56:02;;;;;;;2.87;2.40;;;17.90;99.90;;;;;;5048234;28;20442;-82
2023/04/28 09:58:28;;;;;;;2.20;2.00;;;18.20;99.90;;;;;;5055670;28;20806;-83
2023/04/28 10:01:00;;;;;;;2.10;1.90;;;18.50;99.90;;;;;;5055998;28;20431;-82
2023/04/28 10:03:28;;;;;;;2.90;1.73;;;19.30;99.90;;;;;;5055594;28;20407;-83
2023/04/28 10:05:54;;;;;;;1.70;1.33;;;;;;;;;;5055686;28;20432;-83
2023/04/28 10:08:21;;;;;;;2.43;1.90;;;21.40;99.90;;;;;;5055466;28;20900;-82
2023/04/28 10:10:54;;;;;;;2.67;1.53;;;21.10;99.90;;;;;;5038281;28;20487;-83
2023/04/28 10:13:20;;;;;;;1.93;1.73;;;;;;;;;;5039879;28;20411;-83
2023/04/28 10:15:47;;;;;;;2.00;1.80;;;19.00;99.90;;;;;;5058038;28;20435;-83
2023/04/28 10:18:14;;;;;;;1.80;1.70;;;18.50;99.90;;;;;;5056972;28;20478;-82
2023/04/28 10:20:43;;;;;;;5.83;2.30;;;19.10;99.90;;;;;;5038705;28;20412;-83
2023/04/28 10:23:50;;;;;;;2.30;1.80;;;19.00;99.90;;;;;;5039301;28;20487;-83
2023/04/28 10:26:20;;;;;;;2.23;1.67;;;19.00;99.90;;;;;;5057390;28;20447;-83
2023/04/28 10:28:50;;;;;;;1.83;1.63;;;19.20;99.90;;;;;;5057805;28;20411;-82
2023/04/28 10:31:17;;;;;;;1.63;1.43;;;;;;;;;;5056637;28;20415;-81
2023/04/28 10:33:43;;;;;;;2.30;1.63;;;19.10;99.90;;;;;;5057373;28;20407;-82
2023/04/28 10:36:09;;;;;;;2.27;1.90;;;19.30;99.90;;;;;;5057526;28;20431;-82
2023/04/28 10:39:01;;;;;;;5.83;1.60;;;18.70;99.90;;;;;;5058038;28;20447;-81
2023/04/28 10:41:33;;;;;;;2.47;2.13;;;18.30;99.90;;;;;;5059902;28;20416;-81
2023/04/28 10:43:59;;;;;;;1.90;1.57;;;;;;;;;;5060528;28;20419;-82
2023/04/28 10:46:25;;;;;;;3.00;2.00;;;;;;;;;;5042548;28;20952;-82
2023/04/28 10:48:51;;;;;;;2.00;1.70;;;;;;;;;;5042684;28;20411;-82
2023/04/28 10:51:17;;;;;;;2.87;1.50;;;;;;;;;;5042179;28;20652;-81
2023/04/28 10:53:47;;;;;;;3.60;1.70;;;;;;;;;;5061074;28;20411;-82
2023/04/28 10:56:24;;;;;;;1.63;1.43;;;16.80;99.90;;;;;;5060820;28;20424;-82
2023/04/28 10:58:57;;;;;;;1.87;1.60;;;16.80;99.90;;;;;;5042137;28;20457;-82
2023/04/28 11:01:33;;;;;;;1.70;1.40;;;16.30;99.90;;;;;;5059853;28;20807;-83
2023/04/28 11:04:09;;;;;;;2.30;1.80;;;16.40;99.90;;;;;;5042428;28;20403;-82
2023/04/28 11:06:42;;;;;;;1.90;1.80;;;16.40;99.90;;;;;;5061302;28;20431;-81
2023/04/28 11:09:11;;;;;;;1.93;1.70;;;15.70;99.90;;;;;;5049110;28;20787;-84
2023/04/28 11:11:38;;;;;;;2.80;1.50;;;;;;;;;;5066182;28;20408;-85
2023/04/28 11:14:17;;;;;;;2.10;1.90;;;15.60;99.90;;;;;;5065319;28;20400;-84
2023/04/28 11:16:53;;;;;;;2.37;1.40;;;15.60;99.90;;;;;;5043006;28;20498;-83
2023/04/28 11:19:23;;;;;;;2.60;1.90;;;15.90;99.90;;;;;;5059441;28;20376;-82
2023/04/28 11:21:51;;;;;;;3.37;1.90;;;16.10;99.90;;;;;;5041771;28;20450;-82
2023/04/28 11:24:17;;;;;;;1.73;1.60;;;;;;;;;;5042173;28;20454;-84
2023/04/28 11:26:43;;;;;;;3.07;1.77;;;16.00;99.90;;;;;;5059617;28;20480;-85
2023/04/28 11:29:11;;;;;;;2.60;1.57;;;16.20;99.90;;;;;;5042887;28;20408;-82
2023/04/28 11:31:37;;;;;;;3.33;1.90;;;;;;;;;;5041758;28;20515;-83
2023/04/28 11:34:05;;;;;;;2.90;2.37;;;16.70;99.90;;;;;;5064512;28;20836;-83
2023/04/28 11:36:35;;;;;;;1.60;1.50;;;16.70;99.90;;;;;;5063736;28;20434;-83
2023/04/28 11:39:06;;;;;;;2.53;1.57;;;16.80;99.90;;;;;;5064621;28;20486;-83
2023/04/28 11:41:33;;;;;;;2.30;1.70;;;16.70;99.90;;;;;;5046670;28;20415;-83
2023/04/28 11:44:00;;;;;;;1.73;1.30;;;;;;;;;;5064946;28;20955;-84
2023/04/28 11:46:26;;;;;;;3.27;1.47;;;;;;;;;;5064429;28;20428;-83
2023/04/28 11:49:05;;;;;;;1.83;1.57;;;16.30;99.90;;;;;;5045485;28;20417;-83
2023/04/28 11:51:35;;;;;;;2.13;1.90;;;16.00;99.90;;;;;;5046173;28;20884;-84
2023/04/28 11:54:02;;;;;;;1.83;1.40;;;;;;;;;;5045280;28;20841;-84
2023/04/28 11:56:28;;;;;;;1.90;1.80;;;;;;;;;;5043594;28;20466;-82
2023/04/28 11:59:08;;;;;;;2.10;1.60;;;15.70;99.90;;;;;;5061276;28;20458;-84
2023/04/28 12:02:01;;;;;;;3.00;1.57;;;15.60;99.90;;;;;;5060703;28;20483;-85
2023/04/28 12:04:38;;;;;;;2.03;1.63;;;15.60;99.90;;;;;;5043367;28;20422;-84
2023/04/28 12:07:05;;;;;;;1.23;1.07;;;15.80;99.90;;;;;;5061360;28;20431;-84
2023/04/28 12:09:32;;;;;;;1.37;1.20;;;;;;;;;;5042852;28;20423;-84
2023/04/28 12:12:01;;;;;;;2.00;1.40;;;15.50;99.90;;;;;;5060159;28;20491;-84
2023/04/28 12:14:27;;;;;;;1.33;1.17;;;;;;;;;;5060385;28;20419;-84
2023/04/28 12:16:53;;;;;;;1.87;1.00;;;;;;;;;;5042276;28;20427;-83
2023/04/28 12:19:19;;;;;;;0.87;0.70;;;15.30;99.90;;;;;;5041937;28;20808;-82
2023/04/28 12:21:59;;;;;;;2.30;1.57;;;14.90;99.90;;;;;;5060359;28;20418;-83
2023/04/28 12:24:25;;;;;;;1.73;0.73;;;;;;;;;;5060412;28;20379;-82
2023/04/28 12:26:51;;;;;;;2.33;0.83;;;14.70;99.90;;;;;;5059688;28;20977;-83
2023/04/28 12:29:36;;;;;;;6.10;0.90;;;14.70;99.90;;;;;;5042227;28;20507;-83
2023/04/28 12:32:02;;;;;;;2.47;0.90;;;14.90;99.90;;;;;;5059664;28;20161;-81
2023/04/28 12:34:30;;;;;;;1.00;0.90;;;;;;;;;;5060012;28;20414;-83
2023/04/28 12:36:56;;;;;;;0.97;0.77;;;;;;;;;;5061950;28;20845;-82
2023/04/28 12:39:23;;;;;;;1.20;0.97;;;;;;;;;;5061223;28;20423;-83
2023/04/28 12:41:49;;;;;;;1.33;1.23;;;;;;;;;;5042896;28;20404;-81
2023/04/28 12:44:15;;;;;;;1.77;1.30;;;;;;;;;;5061463;28;20423;-83
2023/04/28 12:46:41;;;;;;;1.40;1.30;;;;;;;;;;5061351;28;20423;-83
2023/04/28 12:49:07;;;;;;;1.40;1.20;;;17.40;99.90;;;;;;5061015;28;20410;-83
2023/04/28 12:51:33;;;;;;;1.43;1.30;;;;;;;;;;5065470;28;20419;-82
2023/04/28 12:54:00;;;;;;;1.30;1.20;;;;;;;;;;5062392;28;20162;-82
2023/04/28 12:56:26;;;;;;;2.63;1.93;;;;;;;;;;5041987;28;20423;-83
2023/04/28 12:58:52;;;;;;;3.70;1.10;;;;;;;;;;5060167;28;20451;-82
2023/04/28 13:01:18;;;;;;;4.03;1.53;;;;;;;;;;5060625;28;20449;-81
2023/04/28 13:03:45;;;;;;;2.77;1.33;;;17.50;99.90;;;;;;5060281;28;20424;-82
2023/04/28 13:06:11;;;;;;;1.90;1.30;;;;;;;;;;5060303;28;20446;-82
2023/04/28 13:08:38;;;;;;;3.30;1.43;;;;;;;;;;5040872;28;20399;-84
2023/04/28 13:11:04;;;;;;;4.53;1.40;;;17.20;99.90;;;;;;5059898;28;20423;-84
2023/04/28 13:13:30;;;;;;;4.23;1.30;;;;;;;;;;5059434;28;20434;-84
2023/04/28 13:15:57;;;;;;;4.00;1.50;;;;;;;;;;5059239;28;20804;-82
2023/04/28 13:18:23;;;;;;;1.67;1.23;;;;;;;;;;5060214;28;20447;-84